Time;durP1;ratioP1;P1;durP2;ratioP2;P2;SDS_P1;SDS_P2;PMS_P1;PMS_P2;Temp;Humidity;BMP_temperature;BMP_pressure;BME280_temperature;BME280_humidity;BME280_pressure;Samples;Min_cycle;Max_cycle;Signal;HPM_P1;HPM_P2
2024/03/12 00:00:07;;;;;;;1334.60;795.72;;;;;;;20.31;40.51;100892.28;5081848;28;20036;-73
2024/03/12 00:02:34;;;;;;;1482.22;859.25;;;;;;;20.36;40.32;100893.38;5071366;28;20074;-73
2024/03/12 00:05:07;;;;;;;1501.78;902.78;;;;;;;20.41;40.09;100896.31;5076903;28;20463;-72
2024/03/12 00:07:34;;;;;;;1515.25;890.67;;;;;;;20.38;40.15;100899.31;5077172;28;20387;-73
2024/03/12 00:10:00;;;;;;;1470.22;834.15;;;;;;;20.41;40.19;100893.69;5077681;28;20660;-73
2024/03/12 00:12:26;;;;;;;1538.20;897.83;;;;;;;20.30;40.20;100896.75;5074368;28;20105;-73
2024/03/12 00:14:52;;;;;;;1585.10;999.90;;;;;;;20.31;40.36;100898.41;5080707;28;20035;-74
2024/03/12 00:17:19;;;;;;;1516.82;926.83;;;;;;;20.25;40.40;100890.34;5076161;28;20552;-73
2024/03/12 00:19:48;;;;;;;1533.97;999.90;;;;;;;20.42;40.09;100897.13;5080252;28;20044;-73
2024/03/12 00:22:14;;;;;;;1239.87;999.90;;;;;;;20.37;40.02;100887.06;5076125;28;20055;-73
2024/03/12 00:24:40;;;;;;;1165.70;999.90;;;;;;;20.36;40.25;100900.50;5075633;28;20032;-73
2024/03/12 00:27:06;;;;;;;1165.93;999.90;;;;;;;20.30;40.17;100903.88;5072513;28;20105;-73
2024/03/12 00:29:32;;;;;;;8.25;7.45;;;;;;;20.22;40.29;100884.41;5079504;28;20082;-73
2024/03/12 00:31:58;;;;;;;7.57;6.55;;;;;;;20.28;40.39;100898.72;5078250;28;20513;-73
2024/03/12 00:34:25;;;;;;;8.35;6.60;;;;;;;20.32;40.16;100905.31;5064607;28;20048;-72
2024/03/12 00:36:52;;;;;;;8.52;7.30;;;;;;;20.18;40.38;100904.28;5081624;28;20036;-73
2024/03/12 00:39:21;;;;;;;9.35;7.60;;;;;;;20.20;40.46;100907.56;5081419;28;20071;-72
2024/03/12 00:41:48;;;;;;;9.10;7.68;;;;;;;20.25;40.10;100903.56;5080318;28;20044;-73
2024/03/12 00:44:13;;;;;;;9.40;7.47;;;;;;;20.29;40.22;100915.41;5081242;28;20069;-73
2024/03/12 00:46:40;;;;;;;8.65;7.30;;;;;;;20.30;40.05;100917.91;5081751;28;20077;-72
2024/03/12 00:49:05;;;;;;;1161.80;999.90;;;;;;;20.30;40.06;100919.72;5083614;28;20321;-72
2024/03/12 00:51:31;;;;;;;1162.70;999.90;;;;;;;20.25;40.25;100919.44;5082707;28;20036;-72
2024/03/12 00:53:57;;;;;;;1164.47;999.90;;;;;;;20.31;40.21;100926.66;5085761;28;20728;-72
2024/03/12 00:56:27;;;;;;;8.77;7.30;;;;;;;20.18;40.32;100924.63;5078492;28;20063;-74
2024/03/12 00:58:53;;;;;;;8.35;7.32;;;;;;;20.16;40.27;100921.34;5081505;28;20327;-74
2024/03/12 01:01:20;;;;;;;8.85;7.60;;;;;;;20.20;40.30;100931.38;5079440;28;20487;-74
2024/03/12 01:03:46;;;;;;;8.88;7.93;;;;;;;20.25;40.18;100935.28;5079776;28;20066;-73
2024/03/12 01:06:13;;;;;;;8.73;7.60;;;;;;;20.15;40.32;100935.56;5078572;28;20119;-74
2024/03/12 01:08:39;;;;;;;9.07;7.97;;;;;;;20.04;40.30;100918.31;5097444;28;20047;-74
2024/03/12 01:11:07;;;;;;;10.10;7.97;;;;;;;20.15;40.30;100940.84;5079578;28;20353;-74
2024/03/12 01:13:33;;;;;;;9.43;7.60;;;;;;;20.17;40.31;100939.66;5081925;28;20032;-73
2024/03/12 01:15:59;;;;;;;8.75;7.68;;;;;;;20.09;40.51;100945.00;5084761;28;20468;-74
2024/03/12 01:18:25;;;;;;;8.77;7.47;;;;;;;20.16;40.24;100939.84;5074470;28;20044;-73
2024/03/12 01:20:50;;;;;;;9.18;8.02;;;;;;;20.10;40.32;100930.78;5083319;28;20185;-73
2024/03/12 01:23:16;;;;;;;8.43;7.40;;;;;;;20.11;40.34;100939.56;5078540;28;20074;-74
2024/03/12 01:25:41;;;;;;;9.00;7.72;;;;;;;20.10;40.40;100946.66;5082823;28;20074;-74
2024/03/12 01:28:10;;;;;;;8.65;7.60;;;;;;;20.12;40.26;100944.69;5075333;28;20105;-73
2024/03/12 01:30:36;;;;;;;9.32;7.63;;;;;;;20.09;40.22;100942.38;5079281;28;20044;-73
2024/03/12 01:33:02;;;;;;;8.73;7.57;;;;;;;20.06;40.39;100939.25;5076584;28;20045;-74
2024/03/12 01:35:30;;;;;;;9.00;7.20;;;;;;;20.08;40.34;100930.16;5078139;28;20123;-74
2024/03/12 01:37:57;;;;;;;8.55;7.57;;;;;;;19.98;40.55;100931.41;5075754;28;20036;-73
2024/03/12 01:40:29;;;;;;;9.27;8.30;;;;;;;19.99;40.57;100925.94;5080091;28;20040;-74
2024/03/12 01:43:03;;;;;;;9.35;8.18;;;;;;;20.07;40.39;100930.34;5077251;28;20040;-72
2024/03/12 01:45:30;;;;;;;9.77;8.05;;;;;;;20.05;40.41;100925.22;5074863;28;20036;-73
2024/03/12 01:47:58;;;;;;;9.43;8.27;;;;;;;19.91;40.60;100920.72;5079367;28;20044;-74
2024/03/12 01:50:24;;;;;;;8.73;7.75;;;;;;;19.96;40.49;100922.84;5079718;28;20071;-72
2024/03/12 01:52:55;;;;;;;9.10;7.88;;;;;;;20.01;40.43;100933.69;5078697;28;20072;-75
2024/03/12 01:55:21;;;;;;;9.68;8.18;;;;;;;19.89;40.56;100922.72;5076910;28;20148;-74
2024/03/12 01:57:47;;;;;;;9.43;8.07;;;;;;;19.96;40.37;100925.50;5080066;28;20042;-74
2024/03/12 02:00:13;;;;;;;9.35;8.35;;;;;;;20.02;40.31;100938.81;5076955;28;20622;-74
2024/03/12 02:02:44;;;;;;;9.43;8.23;;;;;;;19.92;40.39;100930.28;5081768;28;20051;-73
2024/03/12 02:05:10;;;;;;;8.05;7.15;;;;;;;19.94;40.69;100941.53;5080036;28;20052;-74
2024/03/12 02:07:41;;;;;;;10.27;7.93;;;;;;;19.84;40.67;100941.75;5078121;28;20372;-74
2024/03/12 02:10:08;;;;;;;8.88;7.97;;;;;;;19.97;40.43;100946.47;5076351;28;20036;-74
2024/03/12 02:12:33;;;;;;;9.00;7.97;;;;;;;19.92;40.45;100941.69;5076095;28;20071;-74
2024/03/12 02:15:04;;;;;;;9.60;8.18;;;;;;;19.85;40.65;100946.03;5084642;28;20047;-73
2024/03/12 02:17:30;;;;;;;11.18;8.10;;;;;;;19.99;40.29;100952.38;5077761;28;20043;-73
2024/03/12 02:19:59;;;;;;;10.50;8.45;;;;;;;20.00;40.33;100943.44;5081022;28;20039;-74
2024/03/12 02:22:26;;;;;;;10.15;8.25;;;;;;;19.83;40.37;100942.75;5079023;28;20044;-74
2024/03/12 02:24:52;;;;;;;10.32;8.80;;;;;;;19.97;40.33;100951.75;5070463;28;20050;-73
2024/03/12 02:27:18;;;;;;;10.05;8.32;;;;;;;19.88;40.46;100950.16;5082630;28;20024;-74
2024/03/12 02:29:44;;;;;;;9.35;8.05;;;;;;;19.88;40.38;100947.50;5080711;28;20117;-72
2024/03/12 02:32:10;;;;;;;11.05;8.40;;;;;;;19.88;40.49;100948.31;5079502;28;20486;-74
2024/03/12 02:34:36;;;;;;;9.70;8.73;;;;;;;19.83;40.59;100955.97;5072803;28;20035;-75
2024/03/12 02:37:02;;;;;;;9.75;8.40;;;;;;;19.91;40.48;100957.72;5093983;28;20028;-74
2024/03/12 02:39:28;;;;;;;10.13;9.13;;;;;;;19.92;40.39;100954.91;5081276;28;20144;-74
2024/03/12 02:41:53;;;;;;;9.75;8.73;;;;;;;19.87;40.48;100953.78;5078944;28;20039;-74
2024/03/12 02:44:21;;;;;;;9.30;8.15;;;;;;;19.85;40.34;100945.22;5075093;28;20032;-73
2024/03/12 02:46:50;;;;;;;11.48;9.02;;;;;;;19.94;40.31;100956.56;5074862;28;20102;-74
2024/03/12 02:49:17;;;;;;;9.97;8.57;;;;;;;19.82;40.47;100959.63;5074684;28;20064;-74
2024/03/12 02:51:45;;;;;;;10.13;8.35;;;;;;;19.76;40.41;100944.47;5076584;28;21069;-75
2024/03/12 02:54:14;;;;;;;10.60;8.82;;;;;;;19.78;40.63;100958.31;5081128;28;20042;-74
2024/03/12 02:56:40;;;;;;;9.93;8.77;;;;;;;19.85;40.45;100963.72;5081429;28;20127;-74
2024/03/12 02:59:08;;;;;;;10.52;8.50;;;;;;;19.88;40.43;100963.34;5080376;28;20468;-74
2024/03/12 03:01:35;;;;;;;11.52;8.70;;;;;;;19.75;40.44;100953.41;5080647;28;20135;-73
2024/03/12 03:04:01;;;;;;;10.73;9.13;;;;;;;19.60;40.82;100948.03;5076610;28;20036;-74
2024/03/12 03:06:27;;;;;;;10.52;9.25;;;;;;;19.72;40.64;100963.47;5079378;28;20532;-74
2024/03/12 03:08:53;;;;;;;10.00;8.77;;;;;;;19.65;40.80;100962.53;5080107;28;20032;-74
2024/03/12 03:11:19;;;;;;;10.23;9.00;;;;;;;19.78;40.59;100960.97;5076785;28;20044;-73
2024/03/12 03:13:45;;;;;;;10.38;8.65;;;;;;;19.73;40.66;100952.72;5075387;28;20044;-74
2024/03/12 03:16:10;;;;;;;10.52;8.95;;;;;;;19.70;40.52;100955.72;5075250;28;20738;-74
2024/03/12 03:18:37;;;;;;;11.38;9.20;;;;;;;19.72;40.61;100952.91;5078201;28;20507;-74
2024/03/12 03:21:02;;;;;;;10.13;8.70;;;;;;;19.75;40.62;100965.75;5075717;28;20028;-74
2024/03/12 03:23:28;;;;;;;9.48;8.15;;;;;;;19.75;40.49;100977.19;5076911;28;20506;-74
2024/03/12 03:25:54;;;;;;;11.02;8.88;;;;;;;19.79;40.52;100977.66;5078913;28;20043;-74
2024/03/12 03:28:19;;;;;;;9.90;8.65;;;;;;;19.78;40.45;100981.28;5078327;28;20040;-74
2024/03/12 03:30:45;;;;;;;11.15;8.75;;;;;;;19.80;40.37;100974.00;5078022;28;20040;-74
2024/03/12 03:33:11;;;;;;;11.00;8.95;;;;;;;19.75;40.43;100976.31;5079996;28;20040;-74
2024/03/12 03:35:38;;;;;;;10.85;8.90;;;;;;;19.66;40.55;100972.09;5078140;28;20040;-74
2024/03/12 03:38:05;;;;;;;10.70;8.90;;;;;;;19.73;40.50;100983.59;5075774;28;20470;-74
2024/03/12 03:40:33;;;;;;;11.35;8.80;;;;;;;19.66;40.76;100985.31;5079721;28;20117;-74
2024/03/12 03:42:59;;;;;;;10.60;8.98;;;;;;;19.73;40.59;100981.78;5075660;28;20043;-74
2024/03/12 03:45:25;;;;;;;10.55;9.15;;;;;;;19.68;40.63;100999.16;5076467;28;20465;-73
2024/03/12 03:47:51;;;;;;;11.85;9.40;;;;;;;19.63;40.72;100991.78;5082799;28;20083;-74
2024/03/12 03:50:17;;;;;;;10.52;8.93;;;;;;;19.67;40.59;101000.16;5081446;28;20039;-74
2024/03/12 03:56:37;;;;;;;10.75;9.18;;;;;;;19.73;40.49;101010.84;5069790;28;20682;-74
2024/03/12 03:59:03;;;;;;;10.82;9.40;;;;;;;19.58;40.61;100996.78;5080719;28;20036;-74
2024/03/12 04:01:29;;;;;;;12.13;9.43;;;;;;;19.70;40.42;101019.13;5079041;28;20123;-74
2024/03/12 04:03:55;;;;;;;11.45;8.93;;;;;;;19.68;40.52;101022.94;5077120;28;20036;-75
2024/03/12 04:06:22;;;;;;;11.32;8.93;;;;;;;19.74;40.46;101022.25;5074785;28;20059;-74
2024/03/12 04:08:53;;;;;;;10.77;9.00;;;;;;;19.60;40.64;101023.81;5077651;28;21151;-74
2024/03/12 04:11:22;;;;;;;11.38;9.77;;;;;;;19.58;40.54;101024.00;5087218;28;20604;-74
2024/03/12 04:13:50;;;;;;;11.30;9.02;;;;;;;19.58;40.79;101025.81;5084867;28;20044;-74
2024/03/12 04:16:15;;;;;;;991.95;891.00;;;;;;;19.61;40.56;101018.38;5078382;28;20137;-74
2024/03/12 04:18:44;;;;;;;1132.33;999.90;;;;;;;19.52;40.78;101031.75;5080101;28;20043;-74
2024/03/12 04:21:13;;;;;;;1099.63;988.30;;;;;;;19.63;40.54;101033.22;5079284;28;20071;-74
2024/03/12 04:23:42;;;;;;;1098.28;986.70;;;;;;;19.48;40.83;101041.84;5080768;28;20067;-74
2024/03/12 04:26:08;;;;;;;1101.67;989.43;;;;;;;19.58;40.73;101049.59;5080432;28;20221;-74
2024/03/12 04:28:34;;;;;;;1080.10;970.80;;;;;;;19.55;40.68;101053.38;5076659;28;20040;-72
2024/03/12 04:30:59;;;;;;;738.80;660.63;;;;;;;19.58;40.77;101047.78;5082467;28;20067;-75
2024/03/12 04:33:25;;;;;;;1009.83;907.20;;;;;;;19.63;40.46;101055.19;5080872;28;20048;-73
2024/03/12 04:35:52;;;;;;;11.93;9.18;;;;;;;19.54;40.68;101050.91;5066049;28;20035;-72
2024/03/12 04:38:20;;;;;;;176.10;157.70;;;;;;;19.66;40.59;101046.09;5080203;28;20688;-75
2024/03/12 04:40:47;;;;;;;1097.23;993.50;;;;;;;19.67;40.38;101055.66;5081662;28;20379;-72
2024/03/12 04:43:13;;;;;;;1092.50;990.80;;;;;;;19.68;40.43;101060.75;5078528;28;20036;-75
2024/03/12 04:45:43;;;;;;;1061.77;963.00;;;;;;;19.62;40.43;101048.25;5082209;28;20646;-74
2024/03/12 04:48:12;;;;;;;1011.83;918.72;;;;;;;19.66;40.55;101061.94;5077717;28;20044;-74
2024/03/12 04:50:38;;;;;;;982.27;892.67;;;;;;;19.61;40.59;101052.72;5081873;28;20542;-73
2024/03/12 04:53:04;;;;;;;984.33;893.37;;;;;;;19.64;40.50;101058.66;5079418;28;20032;-74
2024/03/12 04:55:34;;;;;;;962.40;876.10;;;;;;;19.65;40.54;101055.81;5086750;28;20039;-74
2024/03/12 04:58:04;;;;;;;956.10;869.97;;;;;;;19.66;40.41;101065.41;5082276;28;20045;-74
2024/03/12 05:00:32;;;;;;;937.13;855.47;;;;;;;19.67;40.29;101060.94;5087142;28;20086;-74
2024/03/12 05:03:01;;;;;;;951.63;867.13;;;;;;;19.75;40.32;101060.88;5083159;28;20036;-75
2024/03/12 05:05:26;;;;;;;948.63;865.43;;;;;;;19.76;40.08;101058.09;5084914;28;20035;-74
2024/03/12 05:07:52;;;;;;;936.27;855.13;;;;;;;19.75;40.27;101069.66;5081421;28;20051;-74
2024/03/12 05:10:20;;;;;;;925.80;849.13;;;;;;;19.84;40.15;101070.44;5077171;28;20048;-74
2024/03/12 05:12:46;;;;;;;792.20;721.53;;;;;;;19.79;40.20;101070.94;5082654;28;20135;-75
2024/03/12 05:15:12;;;;;;;732.50;662.40;;;;;;;19.85;40.14;101072.06;5082751;28;20139;-73
2024/03/12 05:17:42;;;;;;;782.43;717.53;;;;;;;19.69;40.43;101074.78;5078918;28;20024;-74
2024/03/12 05:20:15;;;;;;;711.10;645.85;;;;;;;19.70;40.45;101071.97;5079144;28;20055;-74
2024/03/12 05:22:41;;;;;;;687.13;625.67;;;;;;;19.76;40.33;101076.59;5084849;28;20137;-74
2024/03/12 05:25:19;;;;;;;623.13;561.83;;;;;;;19.80;40.22;101072.59;5081852;28;20052;-74
2024/03/12 05:27:47;;;;;;;625.07;565.50;;;;;;;19.75;40.40;101084.66;5080019;28;20086;-74
2024/03/12 05:30:16;;;;;;;464.73;247.93;;;;;;;19.68;40.49;101087.19;5083009;28;20055;-74
2024/03/12 05:32:47;;;;;;;426.90;382.60;;;;;;;19.71;40.43;101081.53;5081422;28;20482;-74
2024/03/12 05:35:25;;;;;;;456.03;403.53;;;;;;;19.71;40.38;101091.28;5076766;28;20056;-75
2024/03/12 05:38:01;;;;;;;324.97;194.13;;;;;;;19.67;40.44;101093.47;5092959;28;20415;-74
2024/03/12 05:40:43;;;;;;;354.37;249.93;;;;;;;19.69;40.49;101096.75;5081975;28;20051;-74
2024/03/12 05:48:38;;;;;;;187.00;39.60;;;;;;;19.77;40.24;101098.56;5079818;28;20052;-74
2024/03/12 05:51:04;;;;;;;267.00;82.10;;;;;;;19.73;40.41;101107.78;5077545;28;20115;-75
2024/03/12 05:53:30;;;;;;;202.77;42.17;;;;;;;19.63;40.40;101102.72;5082122;28;20844;-75
2024/03/12 05:55:55;;;;;;;282.33;128.60;;;;;;;19.75;40.41;101111.09;5083802;28;20050;-75
2024/03/12 05:58:21;;;;;;;182.87;38.77;;;;;;;19.80;40.24;101119.34;5075765;28;20044;-75
2024/03/12 06:00:48;;;;;;;284.57;124.30;;;;;;;19.71;40.49;101120.34;5079504;28;20047;-73
2024/03/12 06:03:14;;;;;;;191.17;40.63;;;;;;;19.60;40.51;101114.47;5079101;28;20051;-75
2024/03/12 06:05:43;;;;;;;211.13;46.13;;;;;;;19.76;40.31;101126.78;5078768;28;20316;-75
2024/03/12 06:08:09;;;;;;;187.93;38.67;;;;;;;19.76;40.31;101132.06;5075688;28;20051;-75
2024/03/12 06:10:34;;;;;;;215.77;67.23;;;;;;;19.73;40.40;101137.69;5079040;28;20455;-75
2024/03/12 06:13:00;;;;;;;256.77;82.77;;;;;;;19.73;40.40;101140.31;5078271;28;20044;-74
2024/03/12 06:15:25;;;;;;;200.23;46.90;;;;;;;19.67;40.44;101146.31;5079612;28;20051;-74
2024/03/12 06:17:51;;;;;;;223.97;59.10;;;;;;;19.68;40.50;101136.56;5079708;28;20058;-74
2024/03/12 06:20:17;;;;;;;184.17;40.37;;;;;;;19.73;40.36;101148.25;5081146;28;20047;-74
2024/03/12 06:22:43;;;;;;;296.00;99.40;;;;;;;19.64;40.40;101140.53;5077773;28;20050;-75
2024/03/12 06:25:10;;;;;;;345.77;163.00;;;;;;;19.66;40.47;101144.66;5076047;28;20043;-75
2024/03/12 06:27:37;;;;;;;170.93;35.93;;;;;;;19.74;40.38;101151.72;5079232;28;20044;-74
2024/03/12 06:30:04;;;;;;;473.50;314.10;;;;;;;19.70;40.41;101145.13;5065958;28;20044;-74
2024/03/12 06:32:31;;;;;;;180.07;36.70;;;;;;;19.70;40.44;101153.06;5078053;28;20044;-74
2024/03/12 06:34:57;;;;;;;294.57;79.43;;;;;;;19.58;40.41;101137.59;5074917;28;20063;-74
2024/03/12 06:37:23;;;;;;;173.70;37.07;;;;;;;19.59;40.53;101154.28;5076890;28;20044;-74
2024/03/12 06:39:49;;;;;;;183.23;38.23;;;;;;;19.65;40.81;101161.50;5082890;28;20040;-74
2024/03/12 06:42:19;;;;;;;176.17;39.87;;;;;;;19.55;40.56;101145.00;5081516;28;20035;-74
2024/03/12 06:44:47;;;;;;;226.93;49.53;;;;;;;19.65;40.56;101161.50;5079075;28;20681;-74
2024/03/12 06:47:14;;;;;;;177.23;36.73;;;;;;;19.70;40.45;101160.97;5079654;28;20044;-74
2024/03/12 06:49:44;;;;;;;240.87;59.57;;;;;;;19.70;40.37;101160.97;5072906;28;20036;-75
2024/03/12 06:52:11;;;;;;;196.45;41.55;;;;;;;19.65;40.56;101169.44;5068650;28;20044;-74
2024/03/12 06:54:36;;;;;;;188.30;41.10;;;;;;;19.65;40.54;101163.31;5074372;28;20043;-74
2024/03/12 06:57:06;;;;;;;176.23;37.03;;;;;;;19.62;40.62;101169.78;5077758;28;20101;-75
2024/03/12 06:59:32;;;;;;;;;;;;;;;19.62;40.69;101167.13;5080763;28;20075;-74
2024/03/12 07:01:58;;;;;;;174.93;35.83;;;;;;;19.66;40.48;101168.44;5077323;28;20226;-74
2024/03/12 07:04:24;;;;;;;178.10;37.37;;;;;;;19.66;40.44;101167.59;5084025;28;20519;-74
2024/03/12 07:06:50;;;;;;;171.50;36.67;;;;;;;19.54;40.58;101167.97;5077018;28;20075;-74
2024/03/12 07:09:26;;;;;;;176.83;38.63;;;;;;;19.67;40.70;101183.28;5079634;28;20464;-74
2024/03/12 07:11:57;;;;;;;182.57;38.53;;;;;;;19.60;40.64;101188.44;5079884;28;20605;-75
2024/03/12 07:14:32;;;;;;;171.03;37.57;;;;;;;19.63;40.49;101189.91;5081362;28;20130;-75
2024/03/12 07:16:58;;;;;;;165.30;35.73;;;;;;;19.69;40.42;101186.59;5076551;28;20032;-74
2024/03/12 07:19:23;;;;;;;168.03;37.23;;;;;;;20.00;40.01;101189.28;5079718;28;20051;-75
2024/03/12 07:21:50;;;;;;;170.67;37.93;;;;;;;20.46;39.11;101203.44;5076311;28;20460;-75
2024/03/12 07:24:17;;;;;;;166.60;35.90;;;;;;;20.65;38.59;101204.00;5084342;28;20051;-73
2024/03/12 07:26:47;;;;;;;167.77;37.00;;;;;;;20.86;38.29;101190.13;5056969;28;20594;-71
2024/03/12 07:29:13;;;;;;;166.52;36.53;;;;;;;20.67;38.43;101189.59;5082488;28;20501;-73
2024/03/12 07:31:39;;;;;;;167.30;35.50;;;;;;;20.73;38.63;101193.34;5075421;28;20544;-73
2024/03/12 07:34:05;;;;;;;170.37;37.27;;;;;;;20.88;38.59;101204.00;5077334;28;20739;-73
2024/03/12 07:36:33;;;;;;;172.43;37.57;;;;;;;20.88;38.47;101206.66;5080458;28;20452;-75
2024/03/12 07:38:59;;;;;;;170.60;36.77;;;;;;;20.77;39.01;101211.34;5078482;28;20047;-74
2024/03/12 07:41:26;;;;;;;177.27;37.67;;;;;;;20.79;38.80;101212.00;5077263;28;20741;-75
2024/03/12 07:43:52;;;;;;;172.33;40.00;;;;;;;20.63;39.26;101230.63;5078597;28;20046;-74
2024/03/12 07:46:18;;;;;;;173.10;40.40;;;;;;;20.54;39.60;101223.75;5078206;28;20040;-74
2024/03/12 07:48:44;;;;;;;173.63;38.83;;;;;;;20.57;39.36;101226.03;5078601;28;20127;-74
2024/03/12 07:51:10;;;;;;;177.07;39.63;;;;;;;20.55;39.32;101228.03;5078234;28;20032;-73
2024/03/12 07:53:36;;;;;;;169.50;36.17;;;;;;;20.52;39.62;101231.03;5073516;28;20526;-74
2024/03/12 07:56:05;;;;;;;170.90;38.33;;;;;;;20.46;39.39;101226.41;5079796;28;20040;-74
2024/03/12 07:58:30;;;;;;;170.40;37.90;;;;;;;20.42;39.76;101225.13;5075708;28;20115;-73
2024/03/12 08:00:56;;;;;;;170.07;37.20;;;;;;;20.39;39.94;101233.38;5079906;28;20131;-75
2024/03/12 08:03:22;;;;;;;169.53;36.67;;;;;;;20.33;39.90;101228.78;5080675;28;20429;-74
2024/03/12 08:05:48;;;;;;;169.23;40.17;;;;;;;20.37;39.76;101240.69;5078471;28;20047;-75
2024/03/12 08:08:13;;;;;;;169.70;35.60;;;;;;;20.37;39.95;101238.03;5078122;28;20051;-73
2024/03/12 08:10:39;;;;;;;193.43;44.40;;;;;;;20.35;39.96;101238.19;5078292;28;20039;-73
2024/03/12 08:13:08;;;;;;;364.70;232.07;;;;;;;20.30;39.87;101227.31;5083194;28;20035;-74
2024/03/12 08:15:34;;;;;;;183.30;36.58;;;;;;;20.32;39.91;101238.56;5078221;28;20043;-74
2024/03/12 08:18:01;;;;;;;178.80;36.10;;;;;;;20.29;40.04;101240.69;5080861;28;20047;-74
2024/03/12 08:20:27;;;;;;;182.77;37.57;;;;;;;20.19;39.98;101243.56;5077157;28;20043;-74
2024/03/12 08:22:53;;;;;;;183.10;37.27;;;;;;;20.20;39.98;101242.56;5074673;28;20043;-73
2024/03/12 08:25:18;;;;;;;185.43;40.77;;;;;;;20.15;40.10;101242.28;5074658;28;20097;-73
2024/03/12 08:27:44;;;;;;;186.60;40.77;;;;;;;20.24;39.87;101249.16;5078839;28;20535;-72
2024/03/12 08:30:11;;;;;;;183.97;36.73;;;;;;;20.29;39.91;101240.69;5077233;28;20550;-73
2024/03/12 08:32:38;;;;;;;185.77;37.40;;;;;;;20.34;39.87;101249.78;5078624;28;20387;-74
2024/03/12 08:35:05;;;;;;;187.60;38.77;;;;;;;20.31;39.93;101257.25;5073877;28;20123;-74
2024/03/12 08:37:31;;;;;;;189.03;36.93;;;;;;;20.27;39.81;101247.97;5076333;28;20477;-74
2024/03/12 08:39:57;;;;;;;188.17;38.03;;;;;;;20.23;39.98;101253.63;5075407;28;20032;-73
2024/03/12 08:42:22;;;;;;;189.90;38.57;;;;;;;20.28;39.73;101254.91;5079389;28;20787;-74
2024/03/12 08:44:48;;;;;;;185.40;38.13;;;;;;;20.28;39.93;101252.28;5078171;28;20531;-73
2024/03/12 08:47:14;;;;;;;182.33;39.67;;;;;;;20.24;40.00;101262.38;5070284;28;20049;-73
2024/03/12 08:49:41;;;;;;;180.93;40.13;;;;;;;20.01;40.58;101266.78;5076087;28;20090;-73
2024/03/12 08:52:07;;;;;;;178.13;37.33;;;;;;;20.18;40.33;101252.50;5075410;28;20374;-73
2024/03/12 08:54:33;;;;;;;181.77;42.13;;;;;;;20.20;40.20;101263.72;5076685;28;20040;-73
2024/03/12 08:57:01;;;;;;;180.47;38.03;;;;;;;20.07;40.26;101255.50;5084370;28;20128;-73
2024/03/12 08:59:27;;;;;;;174.20;39.07;;;;;;;20.17;40.22;101267.53;5079304;28;20071;-74
2024/03/12 09:01:57;;;;;;;153.80;38.43;;;;;;;20.17;40.13;101262.25;5078320;28;20040;-74
2024/03/12 09:04:30;;;;;;;;;;;;;;;20.19;40.27;101273.47;5079864;28;20063;-72
2024/03/12 09:07:00;;;;;;;151.10;35.80;;;;;;;20.23;40.07;101276.59;5078760;28;19921;-73
2024/03/12 09:09:26;;;;;;;;;;;;;;;20.12;40.25;101280.44;5082930;28;20369;-74
2024/03/12 09:11:53;;;;;;;150.20;37.10;;;;;;;20.27;39.96;101288.47;5076704;28;19927;-75
2024/03/12 09:14:21;;;;;;;150.63;37.27;;;;;;;20.17;40.40;101283.41;5079854;28;20040;-75
2024/03/12 09:16:48;;;;;;;151.03;38.97;;;;;;;20.16;40.39;101288.88;5079735;28;20036;-75
2024/03/12 09:19:15;;;;;;;149.03;34.97;;;;;;;20.03;40.34;101262.13;5080288;28;20455;-74
2024/03/12 09:21:42;;;;;;;151.60;38.27;;;;;;;20.15;40.27;101289.84;5077005;28;20044;-75
2024/03/12 09:24:09;;;;;;;150.90;35.63;;;;;;;20.18;40.17;101292.16;5083550;28;20055;-75
2024/03/12 09:26:38;;;;;;;138.80;37.97;;;;;;;20.12;40.35;101295.50;5078428;28;20044;-75
2024/03/12 09:29:05;;;;;;;137.77;36.05;;;;;;;20.28;40.04;101298.06;5074049;28;20044;-75
2024/03/12 09:31:31;;;;;;;137.73;37.23;;;;;;;20.29;39.87;101288.31;5083378;28;20127;-74
2024/03/12 09:33:57;;;;;;;137.17;37.37;;;;;;;20.16;40.26;101292.34;5076430;28;20119;-75
2024/03/12 09:36:24;;;;;;;137.90;39.60;;;;;;;20.17;40.23;101293.16;5077203;28;20050;-74
2024/03/12 09:38:53;;;;;;;136.33;37.40;;;;;;;20.05;40.51;101294.50;5081525;28;20094;-75
2024/03/12 09:41:24;;;;;;;136.18;36.60;;;;;;;20.18;40.27;101295.63;5072498;28;20062;-74
2024/03/12 09:43:53;;;;;;;135.97;38.37;;;;;;;20.14;40.35;101304.91;5078738;28;20055;-75
2024/03/12 09:46:20;;;;;;;135.13;37.67;;;;;;;20.23;40.34;101303.88;5077640;28;20372;-74
2024/03/12 09:48:48;;;;;;;133.30;37.13;;;;;;;20.29;39.91;101305.03;5081656;28;20794;-74
2024/03/12 09:51:14;;;;;;;134.20;37.03;;;;;;;20.48;39.66;101315.22;5079427;28;20040;-74
2024/03/12 09:53:42;;;;;;;134.80;38.43;;;;;;;20.46;39.82;101311.91;5080989;28;20522;-74
2024/03/12 09:56:08;;;;;;;133.30;36.73;;;;;;;20.55;39.75;101315.34;5075423;28;20032;-73
2024/03/12 09:58:36;;;;;;;133.43;37.87;;;;;;;20.51;39.66;101306.94;5075241;28;20132;-73
2024/03/12 10:01:06;;;;;;;132.53;36.67;;;;;;;20.50;39.94;101323.81;5078662;28;20052;-74
2024/03/12 10:03:35;;;;;;;132.60;36.03;;;;;;;20.51;39.90;101319.34;5079969;28;20281;-75
2024/03/12 10:06:02;;;;;;;132.98;36.35;;;;;;;20.51;39.79;101317.53;5075617;28;20040;-75
2024/03/12 10:08:28;;;;;;;134.90;41.60;;;;;;;20.53;39.76;101320.00;5077261;28;20513;-73
2024/03/12 10:10:54;;;;;;;133.93;39.37;;;;;;;20.54;39.79;101312.88;5090300;27;20047;-74
2024/03/12 10:13:20;;;;;;;131.27;36.67;;;;;;;20.51;40.00;101328.09;5075396;28;20048;-75
2024/03/12 10:16:03;;;;;;;130.13;37.17;;;;;;;20.50;40.02;101318.53;5080735;28;20039;-75
2024/03/12 10:18:31;;;;;;;129.20;37.30;;;;;;;20.51;39.89;101319.34;5084941;28;21681;-75
2024/03/12 10:20:58;;;;;;;123.87;35.87;;;;;;;20.42;40.07;101320.34;5078520;28;20049;-74
2024/03/12 10:23:28;;;;;;;127.50;37.00;;;;;;;20.43;40.17;101309.59;5084782;28;20577;-75
2024/03/12 10:26:27;;;;;;;125.83;38.23;;;;;;;20.46;40.19;101319.84;5076689;28;20078;-76
2024/03/12 10:28:53;;;;;;;125.37;36.50;;;;;;;20.46;40.09;101313.72;5074072;28;20052;-75
2024/03/12 10:31:20;;;;;;;;;;;;;;;20.44;40.30;101313.06;5078947;28;20041;-74
2024/03/12 10:33:48;;;;;;;145.75;38.50;;;;;;;20.40;40.38;101317.84;5073048;28;24510;-74
2024/03/12 10:36:31;;;;;;;122.90;36.47;;;;;;;20.44;40.29;101316.53;5075546;28;20368;-75
2024/03/12 10:38:56;;;;;;;;;;;;;;;20.44;40.36;101321.81;5074194;28;20035;-74
2024/03/12 10:41:22;;;;;;;128.07;36.80;;;;;;;20.37;40.47;101326.13;5065230;28;20602;-73
2024/03/12 10:43:50;;;;;;;124.53;37.13;;;;;;;20.35;40.32;101324.66;5078532;28;20094;-73
2024/03/12 10:46:16;;;;;;;;;;;;;;;20.32;40.37;101323.19;5076806;28;20089;-73
2024/03/12 10:48:43;;;;;;;142.27;38.25;;;;;;;20.38;40.14;101332.25;5075701;28;25063;-73
2024/03/12 10:51:12;;;;;;;123.93;35.40;;;;;;;20.35;40.29;101314.91;5073920;28;20155;-73
2024/03/12 10:53:42;;;;;;;;;;;;;;;20.35;40.37;101325.50;5073813;28;20456;-73
2024/03/12 10:56:09;;;;;;;143.07;38.03;;;;;;;20.32;40.29;101333.78;5071686;28;24503;-74
2024/03/12 10:58:37;;;;;;;125.10;36.33;;;;;;;20.25;40.36;101330.13;5077328;28;20043;-72
2024/03/12 11:01:04;;;;;;;122.77;37.13;;;;;;;20.26;40.41;101334.44;5075329;28;20126;-73
2024/03/12 11:03:33;;;;;;;122.83;36.67;;;;;;;20.29;40.34;101333.25;5072855;28;20040;-74
2024/03/12 11:06:00;;;;;;;123.37;37.83;;;;;;;20.28;40.22;101336.91;5076122;28;20268;-73
2024/03/12 11:08:25;;;;;;;;;;;;;;;20.20;40.41;101335.94;5072622;28;20079;-74
2024/03/12 11:10:52;;;;;;;;;;;;;;;20.17;40.59;101341.56;5076782;28;19974;-74
2024/03/12 11:13:20;;;;;;;;;;;;;;;20.18;40.44;101335.28;5073952;28;19934;-75
2024/03/12 11:15:48;;;;;;;;;;;;;;;20.17;40.46;101348.69;5075179;28;19948;-75
2024/03/12 11:18:34;;;;;;;149.75;36.92;;;;;;;20.20;40.27;101338.59;5074954;28;28065;-75